Time;durP1;ratioP1;P1;durP2;ratioP2;P2;SDS_P1;SDS_P2;PMS_P1;PMS_P2;Temp;Humidity;BMP_temperature;BMP_pressure;BME280_temperature;BME280_humidity;BME280_pressure;Samples;Min_cycle;Max_cycle;Signal;HPM_P1;HPM_P2
2021/05/30 00:00:10;;;;;;;14.27;7.68;;;7.30;99.90;;;5.78;100.00;102391.94;4920711;28;20445;-80
2021/05/30 00:02:41;;;;;;;14.65;8.30;;;7.30;99.90;;;5.72;100.00;102391.06;4879290;28;20079;-80
2021/05/30 00:05:10;;;;;;;14.32;7.95;;;7.20;99.90;;;5.69;100.00;102392.81;4913749;28;20084;-80
2021/05/30 00:07:37;;;;;;;16.35;8.68;;;7.30;99.90;;;5.70;100.00;102394.53;4916095;28;20096;-80
2021/05/30 00:10:09;;;;;;;16.88;8.85;;;7.20;99.90;;;5.65;100.00;102391.06;4942505;28;20113;-79
2021/05/30 00:12:37;;;;;;;15.85;8.43;;;7.20;99.90;;;5.63;100.00;102393.66;4930730;28;20081;-80
2021/05/30 00:15:12;;;;;;;18.95;9.15;;;7.10;99.90;;;5.61;100.00;102387.56;4949450;28;20208;-79
2021/05/30 00:17:38;;;;;;;16.45;8.60;;;7.10;99.90;;;5.61;100.00;102391.91;4858938;28;20082;-79
2021/05/30 00:20:10;;;;;;;17.25;9.10;;;7.10;99.90;;;5.63;100.00;102390.19;4913459;28;20065;-79
2021/05/30 00:22:42;;;;;;;18.73;9.95;;;7.10;99.90;;;5.58;100.00;102386.72;4885257;28;20069;-78
2021/05/30 00:25:10;;;;;;;15.93;8.80;;;7.10;99.90;;;5.60;100.00;102387.59;4922995;28;20094;-79
2021/05/30 00:27:37;;;;;;;17.80;9.02;;;7.10;99.90;;;5.61;100.00;102392.78;4927818;28;20618;-79
2021/05/30 00:30:10;;;;;;;19.02;8.88;;;7.10;99.90;;;5.61;100.00;102387.56;4879135;28;20068;-79
2021/05/30 00:32:36;;;;;;;17.73;9.38;;;7.10;99.90;;;5.61;100.00;102386.69;4889141;28;20079;-79
2021/05/30 00:35:03;;;;;;;16.67;8.77;;;7.10;99.90;;;5.64;100.00;102376.25;4934428;28;20094;-79
2021/05/30 00:37:29;;;;;;;19.80;9.30;;;7.10;99.90;;;5.61;100.00;102384.94;4948049;28;20093;-79
2021/05/30 00:40:02;;;;;;;17.52;9.43;;;7.10;99.90;;;5.58;100.00;102387.56;4944015;28;20214;-79
2021/05/30 00:42:28;;;;;;;20.98;9.50;;;7.10;99.90;;;5.51;100.00;102389.31;4921112;28;20119;-79
2021/05/30 00:44:54;;;;;;;15.00;8.73;;;7.00;99.90;;;5.44;100.00;102386.66;4931152;28;20144;-79
2021/05/30 00:47:20;;;;;;;17.77;9.07;;;6.90;99.90;;;5.34;100.00;102381.44;4939207;28;20152;-79
2021/05/30 00:49:46;;;;;;;19.45;8.27;;;6.80;99.90;;;5.25;100.00;102378.81;4909609;28;20069;-79
2021/05/30 00:52:17;;;;;;;14.52;7.72;;;6.80;99.90;;;5.20;100.00;102377.94;4970236;28;20132;-79
2021/05/30 00:54:43;;;;;;;16.83;7.15;;;6.70;99.90;;;5.17;100.00;102382.28;4930752;28;20081;-79
2021/05/30 00:57:10;;;;;;;18.45;8.00;;;6.70;99.90;;;5.12;100.00;102382.28;4931611;28;20267;-79
2021/05/30 00:59:42;;;;;;;20.65;8.02;;;6.70;99.90;;;5.12;100.00;102372.69;4943987;28;20073;-79
2021/05/30 01:02:12;;;;;;;15.07;8.38;;;6.60;99.90;;;5.07;100.00;102379.63;4938267;28;20151;-80
2021/05/30 01:04:38;;;;;;;17.70;8.65;;;6.60;99.90;;;5.11;100.00;102384.00;4937377;28;20060;-79
2021/05/30 01:07:04;;;;;;;15.82;8.15;;;6.60;99.90;;;5.07;100.00;102386.59;4891236;28;20094;-79
2021/05/30 01:09:32;;;;;;;16.92;8.02;;;6.60;99.90;;;5.05;100.00;102383.13;4935415;28;20085;-79
2021/05/30 01:12:03;;;;;;;15.35;8.65;;;6.50;99.90;;;5.01;100.00;102383.97;4901537;28;20565;-80
2021/05/30 01:14:30;;;;;;;16.17;8.00;;;6.50;99.90;;;4.94;100.00;102383.94;4904516;28;20082;-79
2021/05/30 01:16:57;;;;;;;16.50;7.95;;;6.40;99.90;;;4.88;100.00;102380.44;4893187;28;20073;-80
2021/05/30 01:19:29;;;;;;;18.90;7.82;;;6.30;99.90;;;4.79;100.00;102377.81;4944869;28;20071;-79
2021/05/30 01:21:59;;;;;;;13.60;7.93;;;6.20;99.90;;;4.65;100.00;102381.25;4930947;28;20582;-79
2021/05/30 01:24:24;;;;;;;13.77;7.38;;;6.10;99.90;;;4.55;100.00;102387.28;4883829;28;20552;-79
2021/05/30 01:26:50;;;;;;;17.58;8.15;;;6.10;99.90;;;4.45;100.00;102383.75;4933657;28;20380;-79
2021/05/30 01:29:18;;;;;;;16.08;7.25;;;6.00;99.90;;;4.39;100.00;102381.13;4957635;28;20079;-80
2021/05/30 01:31:47;;;;;;;14.30;7.65;;;5.90;99.90;;;4.32;100.00;102377.59;4932808;28;20077;-81
2021/05/30 01:34:14;;;;;;;16.38;7.78;;;5.90;99.90;;;4.27;100.00;102374.06;4901596;28;20084;-79
2021/05/30 01:36:39;;;;;;;14.98;7.65;;;5.90;99.90;;;4.24;100.00;102374.06;4924587;28;20532;-79
2021/05/30 01:39:05;;;;;;;15.48;8.38;;;5.80;99.90;;;4.23;100.00;102381.88;4951550;28;20071;-79
2021/05/30 01:41:40;;;;;;;18.50;8.88;;;5.90;99.90;;;4.34;100.00;102382.81;4948915;28;20088;-79
2021/05/30 01:44:06;;;;;;;15.98;8.80;;;5.90;99.90;;;4.32;100.00;102382.81;4954799;28;20068;-79
2021/05/30 01:46:31;;;;;;;18.25;8.48;;;5.90;99.90;;;4.35;100.00;102383.69;4909337;28;20159;-79
2021/05/30 01:48:58;;;;;;;16.58;8.82;;;6.00;99.90;;;4.37;100.00;102389.78;4918674;28;20067;-79
2021/05/30 01:51:28;;;;;;;15.23;8.80;;;5.90;99.90;;;4.37;100.00;102389.78;4935661;28;20574;-79
2021/05/30 01:54:04;;;;;;;21.20;8.82;;;6.00;99.90;;;4.38;100.00;102392.38;4945538;28;20101;-79
2021/05/30 01:59:17;;;;;;;16.48;8.35;;;6.00;99.90;;;4.39;100.00;102393.28;4912971;28;20071;-79
2021/05/30 02:01:43;;;;;;;21.60;8.95;;;6.00;99.90;;;4.40;100.00;102389.81;4940828;28;20066;-79
2021/05/30 02:04:17;;;;;;;20.00;9.10;;;5.90;99.90;;;4.36;100.00;102388.91;4937026;28;20140;-78
2021/05/30 02:06:43;;;;;;;21.33;9.18;;;5.90;99.90;;;4.40;100.00;102395.03;4906429;28;20064;-79
2021/05/30 02:09:11;;;;;;;19.02;9.23;;;5.90;99.90;;;4.35;100.00;102391.53;4940971;28;20080;-79
2021/05/30 02:11:38;;;;;;;23.65;9.40;;;5.90;99.90;;;4.37;100.00;102397.63;4952291;28;20083;-80
2021/05/30 02:14:10;;;;;;;19.17;9.45;;;5.90;99.90;;;4.32;100.00;102390.63;4949889;28;20179;-80
2021/05/30 02:16:38;;;;;;;21.88;9.85;;;5.90;99.90;;;4.30;100.00;102394.09;4940818;28;20149;-79
2021/05/30 02:19:05;;;;;;;21.38;9.63;;;5.90;99.90;;;4.34;100.00;102393.22;4929952;28;20082;-79
2021/05/30 02:21:45;;;;;;;17.98;9.48;;;5.90;99.90;;;4.32;100.00;102395.84;4944114;28;20144;-79
2021/05/30 02:24:16;;;;;;;23.52;9.90;;;5.90;99.90;;;4.28;100.00;102396.69;4899144;28;20066;-79
2021/05/30 02:26:43;;;;;;;19.90;9.95;;;5.90;99.90;;;4.25;100.00;102391.44;4924859;28;20589;-79
2021/05/30 02:29:18;;;;;;;22.50;10.00;;;5.90;99.90;;;4.34;100.00;102397.59;4931442;28;20069;-79
2021/05/30 02:31:47;;;;;;;18.77;9.65;;;5.90;99.90;;;4.36;100.00;102393.25;4941481;28;20114;-79
2021/05/30 02:34:12;;;;;;;22.25;9.38;;;5.90;99.90;;;4.34;100.00;102402.81;4890601;28;20147;-79
2021/05/30 02:36:38;;;;;;;18.52;9.50;;;5.80;99.90;;;4.20;100.00;102397.50;4882860;28;20556;-79
2021/05/30 02:39:04;;;;;;;19.95;8.73;;;5.70;99.90;;;4.04;100.00;102401.72;4922010;28;20072;-79
2021/05/30 02:41:30;;;;;;;16.83;8.27;;;5.50;99.90;;;3.90;100.00;102405.09;4934151;28;20084;-79
2021/05/30 02:44:01;;;;;;;17.58;7.93;;;5.40;99.90;;;3.80;100.00;102394.59;4967820;28;21217;-79
2021/05/30 02:46:27;;;;;;;15.35;7.88;;;5.40;99.90;;;3.67;100.00;102406.63;4927868;28;20414;-79
2021/05/30 02:48:53;;;;;;;17.13;7.38;;;5.20;99.90;;;3.54;100.00;102416.06;4944447;28;20172;-79
2021/05/30 02:51:18;;;;;;;14.18;6.45;;;5.10;99.90;;;3.47;100.00;102409.06;4969456;28;20076;-79
2021/05/30 02:53:44;;;;;;;13.27;6.90;;;5.10;99.90;;;3.44;100.00;102409.91;4956206;28;20082;-79
2021/05/30 02:56:10;;;;;;;15.40;7.25;;;5.10;99.90;;;3.40;100.00;102407.28;4952782;28;20123;-79
2021/05/30 02:58:41;;;;;;;14.88;6.97;;;5.10;99.90;;;3.40;100.00;102418.56;4953640;28;20080;-80
2021/05/30 03:01:07;;;;;;;15.05;6.93;;;5.10;99.90;;;3.46;100.00;102417.75;4942750;28;20129;-79
2021/05/30 03:03:32;;;;;;;18.80;8.70;;;5.10;99.90;;;3.49;100.00;102413.44;4938838;28;20075;-79
2021/05/30 03:05:58;;;;;;;17.77;8.38;;;5.20;99.90;;;3.58;100.00;102416.97;4960867;28;20524;-79
2021/05/30 03:08:24;;;;;;;22.70;9.15;;;5.20;99.90;;;3.67;100.00;102419.66;4963116;28;20069;-79
2021/05/30 03:10:50;;;;;;;23.98;8.93;;;5.40;99.90;;;3.83;100.00;102408.53;4937065;28;20529;-79
2021/05/30 03:13:21;;;;;;;22.38;9.73;;;5.50;99.90;;;3.87;100.00;102407.69;4936176;28;24383;-79
2021/05/30 03:15:46;;;;;;;18.58;9.50;;;5.60;99.90;;;4.00;100.00;102411.28;4956370;28;20065;-79
2021/05/30 03:18:12;;;;;;;18.17;9.82;;;5.50;99.90;;;4.11;100.00;102407.00;4946637;28;20073;-79
2021/05/30 03:20:38;;;;;;;20.73;9.57;;;5.80;99.90;;;4.21;100.00;102399.25;4954723;28;20073;-79
2021/05/30 03:23:04;;;;;;;20.92;9.65;;;5.90;99.90;;;4.29;100.00;102405.38;4953198;28;20076;-79
2021/05/30 03:25:30;;;;;;;15.65;8.25;;;5.90;99.90;;;4.29;100.00;102398.44;4953637;28;20075;-79
2021/05/30 03:28:04;;;;;;;18.15;8.88;;;6.00;99.90;;;4.41;100.00;102407.22;4927500;28;20077;-79
2021/05/30 03:30:30;;;;;;;22.60;10.05;;;6.10;99.90;;;4.45;100.00;102401.13;4916821;28;20088;-79
2021/05/30 03:32:56;;;;;;;15.20;7.90;;;6.10;99.90;;;4.52;100.00;102406.41;4944811;28;20086;-78
2021/05/30 03:35:22;;;;;;;13.43;7.82;;;6.20;99.90;;;4.57;100.00;102408.16;4945594;28;20090;-79
2021/05/30 03:37:53;;;;;;;17.83;8.10;;;6.20;99.90;;;4.58;100.00;102409.88;4940450;28;20121;-79
2021/05/30 03:40:31;;;;;;;15.80;7.78;;;6.30;99.90;;;4.69;100.00;102403.88;4946695;28;20479;-79
2021/05/30 03:42:57;;;;;;;15.10;8.02;;;7.00;99.90;;;5.66;100.00;102408.47;4925190;28;20067;-79
2021/05/30 03:45:25;;;;;;;17.48;9.18;;;8.40;99.90;;;6.95;100.00;102397.78;4969827;28;20112;-80
2021/05/30 03:47:51;;;;;;;14.57;8.48;;;10.00;99.90;;;8.38;94.12;102394.03;4919561;28;20063;-80
2021/05/30 03:50:18;;;;;;;13.45;6.65;;;11.60;99.90;;;9.73;87.17;102394.88;4951072;28;20061;-79
2021/05/30 03:52:49;;;;;;;7.40;5.13;;;12.70;99.90;;;10.62;81.77;102398.53;4928601;28;20112;-79
2021/05/30 03:55:16;;;;;;;10.32;5.82;;;13.80;99.90;;;11.44;76.45;102394.13;4958387;28;20079;-80
2021/05/30 03:57:42;;;;;;;9.77;4.45;;;14.60;99.90;;;12.02;73.65;102389.22;4943047;28;20066;-80
2021/05/30 04:00:27;;;;;;;6.72;4.00;;;14.90;99.90;;;12.37;72.60;102390.03;4927404;28;20058;-80
2021/05/30 04:03:00;;;;;;;9.20;4.13;;;15.30;99.90;;;12.39;69.87;102391.72;4951745;28;20069;-80
2021/05/30 04:05:26;;;;;;;10.75;4.30;;;15.80;99.90;;;13.39;69.48;102391.47;4889344;28;20060;-81
2021/05/30 04:07:51;;;;;;;8.48;4.45;;;16.60;99.90;;;13.99;66.14;102392.09;4908924;28;20062;-79
2021/05/30 04:10:17;;;;;;;9.00;4.38;;;17.20;99.90;;;14.47;64.79;102388.66;4963232;28;20060;-80
2021/05/30 04:12:48;;;;;;;6.68;4.32;;;17.90;99.90;;;14.84;61.43;102392.63;4922689;28;20053;-80
2021/05/30 04:15:15;;;;;;;6.22;4.25;;;18.10;99.90;;;15.47;62.16;102398.09;4914076;28;20045;-80
2021/05/30 04:17:43;;;;;;;5.95;3.78;;;19.00;99.90;;;16.56;59.08;102384.59;4952989;28;20436;-80
2021/05/30 04:20:20;;;;;;;4.40;3.30;;;19.90;99.90;;;17.42;56.25;102383.22;4934121;28;20039;-80
2021/05/30 04:22:47;;;;;;;5.60;2.92;;;20.70;99.00;;;17.99;54.38;102388.41;4905009;28;20060;-80
2021/05/30 04:25:14;;;;;;;4.70;2.80;;;21.10;95.10;;;18.34;51.48;102391.03;4930336;28;21071;-80
2021/05/30 04:27:43;;;;;;;5.70;3.00;;;21.60;93.40;;;18.77;49.66;102388.72;4964742;28;20039;-80
2021/05/30 04:30:11;;;;;;;3.55;2.53;;;21.80;93.60;;;19.09;50.55;102399.44;4915477;28;20504;-81
2021/05/30 04:32:38;;;;;;;4.07;2.50;;;22.30;93.00;;;19.15;50.17;102393.75;4907936;28;20042;-81
2021/05/30 04:35:06;;;;;;;4.63;2.90;;;22.60;92.20;;;19.95;49.09;102390.00;4922446;28;20046;-80
2021/05/30 04:37:38;;;;;;;4.32;2.60;;;22.90;91.80;;;20.37;47.87;102396.38;4907508;28;20089;-80
2021/05/30 04:40:05;;;;;;;4.22;2.65;;;23.00;87.70;;;20.12;44.71;102394.34;4948986;28;20479;-80
2021/05/30 04:42:32;;;;;;;6.32;2.83;;;23.30;89.40;;;20.67;44.58;102401.69;4934676;28;20490;-81
2021/05/30 04:44:59;;;;;;;3.97;2.60;;;22.90;89.40;;;20.21;47.56;102400.94;4939033;28;20456;-80
2021/05/30 04:47:29;;;;;;;6.60;2.50;;;23.20;90.20;;;20.82;46.43;102393.63;4933591;28;20154;-82
2021/05/30 04:49:55;;;;;;;4.25;2.40;;;23.60;90.20;;;20.82;46.06;102396.28;4927452;28;20106;-81
2021/05/30 04:52:21;;;;;;;4.30;2.95;;;23.80;89.00;;;21.57;45.17;102402.16;4952354;28;20030;-81
2021/05/30 04:54:47;;;;;;;3.25;2.40;;;24.10;87.60;;;21.27;45.47;102399.63;4921779;28;20030;-80
2021/05/30 04:57:13;;;;;;;3.13;2.20;;;24.30;83.50;;;21.84;42.79;102407.47;4933971;28;20034;-80
2021/05/30 04:59:41;;;;;;;4.22;2.40;;;25.10;81.40;;;22.57;41.28;102403.38;4936173;28;20033;-81
2021/05/30 05:02:09;;;;;;;2.85;2.08;;;25.40;77.30;;;22.70;39.54;102416.78;4974265;28;20053;-82
2021/05/30 05:04:35;;;;;;;4.75;2.50;;;25.70;79.80;;;23.31;40.64;102414.16;4959873;28;20029;-81
2021/05/30 05:07:01;;;;;;;3.55;2.28;;;25.90;79.90;;;23.59;40.59;102409.44;4954395;28;20030;-81
2021/05/30 05:09:27;;;;;;;2.65;2.40;;;26.10;78.30;;;24.26;37.56;102406.94;4926328;28;20164;-82
2021/05/30 05:11:53;;;;;;;5.32;2.63;;;25.70;76.60;;;24.10;37.87;102411.81;4905435;28;20041;-81
2021/05/30 05:14:18;;;;;;;5.25;2.47;;;25.30;77.50;;;24.01;37.72;102409.81;4912052;28;20042;-81
2021/05/30 05:16:49;;;;;;;4.57;2.40;;;25.50;79.30;;;24.09;38.13;102415.47;4941265;28;20042;-82
2021/05/30 05:19:15;;;;;;;3.55;2.45;;;26.40;72.60;;;24.41;35.01;102410.28;4930147;28;20049;-81
2021/05/30 05:21:41;;;;;;;4.93;2.35;;;25.50;72.60;;;24.00;36.51;102418.88;4951271;28;20502;-81
2021/05/30 05:24:07;;;;;;;5.55;2.80;;;26.50;76.40;;;24.53;37.37;102411.16;4929016;28;20402;-81
2021/05/30 05:26:33;;;;;;;4.43;2.15;;;27.20;71.10;;;24.94;35.38;102415.91;4951985;28;20105;-81
2021/05/30 05:29:02;;;;;;;4.72;2.60;;;27.40;68.10;;;22.30;36.67;102430.31;4948186;28;20115;-80
2021/05/30 05:31:30;;;;;;;5.43;2.47;;;26.60;73.30;;;23.54;38.90;102429.44;4933263;28;20033;-82
2021/05/30 05:33:56;;;;;;;5.05;2.85;;;26.60;72.40;;;23.40;38.34;102426.06;4950719;28;20030;-81
2021/05/30 05:36:22;;;;;;;4.47;2.65;;;26.90;71.70;;;24.38;36.46;102433.88;4957836;28;20022;-81
2021/05/30 05:38:50;;;;;;;4.43;2.30;;;26.80;70.50;;;24.14;36.33;102418.66;4949942;28;20035;-80
2021/05/30 05:41:20;;;;;;;3.00;1.90;;;27.10;69.60;;;25.03;34.97;102426.91;4942071;28;20042;-81
2021/05/30 05:43:46;;;;;;;3.05;2.20;;;27.80;67.50;;;24.50;33.48;102416.78;4950118;28;20034;-81
2021/05/30 05:46:12;;;;;;;4.32;2.22;;;26.90;70.20;;;23.86;36.97;102433.38;4938969;28;20027;-81
2021/05/30 05:48:38;;;;;;;3.50;1.90;;;27.30;68.60;;;24.88;33.93;102427.19;4927503;28;20402;-81
2021/05/30 05:51:04;;;;;;;3.03;1.90;;;25.70;69.90;;;20.99;40.96;102433.59;4945667;28;22648;-80
2021/05/30 05:53:30;;;;;;;2.58;1.70;;;25.10;69.30;;;22.02;37.49;102428.66;4918639;28;20054;-80
2021/05/30 05:56:01;;;;;;;3.88;1.70;;;24.80;73.40;;;23.29;38.29;102430.41;4913259;28;20568;-81
2021/05/30 05:58:27;;;;;;;2.55;1.50;;;25.60;68.40;;;21.02;39.94;102436.06;4919690;28;20026;-80
2021/05/30 06:00:52;;;;;;;2.75;1.73;;;23.90;71.50;;;19.32;43.22;102439.06;4934636;28;20105;-80
2021/05/30 06:03:18;;;;;;;2.72;1.60;;;24.00;74.00;;;22.23;39.02;102431.72;4956810;28;20489;-80
2021/05/30 06:05:44;;;;;;;3.10;1.63;;;25.10;70.60;;;21.36;39.81;102436.56;4914447;28;20037;-80
2021/05/30 06:08:13;;;;;;;3.42;1.67;;;24.80;74.00;;;23.20;38.32;102428.41;4943932;28;20030;-80
2021/05/30 06:10:41;;;;;;;2.83;1.70;;;25.30;73.10;;;22.51;37.35;102427.97;4927484;28;20023;-81
2021/05/30 06:13:10;;;;;;;3.58;1.75;;;25.00;73.70;;;22.56;40.04;102425.81;4952085;28;20042;-80
2021/05/30 06:15:43;;;;;;;2.70;1.65;;;25.90;71.40;;;23.07;35.20;102433.81;4922402;28;20049;-80
2021/05/30 06:18:12;;;;;;;3.63;1.77;;;25.90;66.80;;;24.20;32.19;102437.03;4902766;28;20388;-80
2021/05/30 06:20:50;;;;;;;3.20;1.70;;;26.00;67.60;;;24.07;31.71;102436.28;4968171;28;20523;-80
2021/05/30 06:23:16;;;;;;;3.28;1.70;;;24.40;66.30;;;21.73;38.01;102446.69;4907497;28;22158;-81
2021/05/30 06:25:44;;;;;;;3.97;1.80;;;24.10;71.90;;;21.13;38.47;102447.91;4928916;28;20050;-80
2021/05/30 06:28:14;;;;;;;3.55;1.88;;;24.00;71.70;;;20.34;42.43;102452.72;4939409;28;20161;-80
2021/05/30 06:30:41;;;;;;;3.65;2.20;;;24.00;73.80;;;20.23;42.32;102457.88;4940295;28;20031;-81
2021/05/30 06:33:10;;;;;;;3.35;2.00;;;23.60;78.00;;;20.81;43.67;102453.47;4957278;28;20073;-80
2021/05/30 06:35:39;;;;;;;3.33;2.15;;;23.70;72.60;;;21.78;37.34;102455.31;4915260;28;20101;-80
2021/05/30 06:38:10;;;;;;;5.15;1.98;;;23.10;73.00;;;22.02;37.92;102455.47;4936023;28;20035;-80
2021/05/30 06:40:37;;;;;;;5.55;2.17;;;23.00;74.80;;;20.54;40.50;102456.91;4941629;28;20044;-80
2021/05/30 06:43:04;;;;;;;3.53;1.70;;;22.60;78.40;;;21.07;41.68;102463.41;4923732;28;20050;-80
2021/05/30 06:45:30;;;;;;;5.55;1.80;;;22.40;76.90;;;20.77;41.65;102450.13;4939793;28;20042;-79
2021/05/30 06:48:01;;;;;;;3.13;1.58;;;22.40;76.60;;;21.52;39.53;102465.06;4942182;28;20139;-80
2021/05/30 06:50:30;;;;;;;2.28;1.50;;;23.00;71.80;;;22.12;35.48;102453.88;4913504;28;20091;-80
2021/05/30 06:52:56;;;;;;;2.95;1.50;;;22.40;70.30;;;20.82;37.44;102461.44;4974244;28;20097;-79
2021/05/30 06:55:23;;;;;;;4.07;1.85;;;21.20;75.70;;;19.56;42.35;102470.69;4952881;28;20037;-79
2021/05/30 06:57:55;;;;;;;2.95;1.58;;;21.10;75.00;;;20.24;39.36;102463.16;4903995;28;20041;-81
2021/05/30 07:00:21;;;;;;;3.35;1.63;;;21.30;74.30;;;19.61;39.34;102468.59;4955572;28;20023;-80
2021/05/30 07:02:49;;;;;;;3.42;1.67;;;21.30;73.80;;;19.51;38.61;102464.75;4981360;28;20045;-80
2021/05/30 07:05:18;;;;;;;2.38;1.73;;;21.50;76.50;;;21.31;38.56;102460.97;4962419;28;20038;-80
2021/05/30 07:07:46;;;;;;;2.60;1.60;;;22.40;76.40;;;20.93;40.16;102460.75;4931638;28;20032;-81
2021/05/30 07:10:14;;;;;;;4.50;2.17;;;22.60;75.40;;;21.35;38.48;102464.31;4942452;28;20031;-80
2021/05/30 07:12:40;;;;;;;3.60;1.83;;;22.60;77.20;;;22.32;35.94;102460.59;4905838;28;20043;-79
2021/05/30 07:15:07;;;;;;;4.15;1.80;;;23.10;74.30;;;21.40;38.36;102467.53;4931945;28;20507;-81
2021/05/30 07:17:38;;;;;;;3.53;2.00;;;22.70;74.30;;;20.76;40.84;102467.16;4959118;28;20043;-80
2021/05/30 07:20:06;;;;;;;3.60;1.70;;;22.70;74.10;;;21.81;35.56;102461.28;4967273;28;20034;-80
2021/05/30 07:22:32;;;;;;;3.55;1.58;;;22.80;72.50;;;21.84;35.91;102465.63;4925943;28;20081;-80
2021/05/30 07:24:58;;;;;;;3.53;1.95;;;22.40;73.70;;;20.54;38.98;102467.59;4892739;28;20041;-79
2021/05/30 07:27:29;;;;;;;4.10;1.90;;;21.50;77.00;;;20.66;40.65;102466.84;4936789;28;20426;-79
2021/05/30 07:29:55;;;;;;;3.42;1.65;;;;;;;21.10;38.39;102467.69;4935396;28;20029;-79
2021/05/30 07:32:20;;;;;;;2.47;1.73;;;21.20;77.00;;;20.43;40.09;102470.03;4949286;28;20092;-80
2021/05/30 07:34:47;;;;;;;3.95;1.63;;;22.00;75.00;;;22.20;35.12;102464.06;4934446;28;20108;-79
2021/05/30 07:37:13;;;;;;;3.50;1.48;;;22.70;73.60;;;22.09;36.75;102476.41;4949943;28;20033;-79
2021/05/30 07:39:39;;;;;;;3.78;1.45;;;21.90;72.60;;;21.29;36.27;102470.94;4948319;28;20042;-79
2021/05/30 07:42:07;;;;;;;3.42;1.30;;;22.10;73.40;;;21.20;35.04;102476.88;4971215;28;20471;-79
2021/05/30 07:44:33;;;;;;;3.55;1.60;;;22.80;71.10;;;21.83;33.35;102477.28;4947198;28;20041;-80
2021/05/30 07:46:59;;;;;;;2.25;1.20;;;22.10;69.80;;;21.50;32.23;102470.53;4918770;28;20019;-79
2021/05/30 07:49:25;;;;;;;4.20;1.00;;;22.10;68.40;;;21.59;34.58;102475.28;4966320;28;20082;-80
2021/05/30 07:51:51;;;;;;;4.43;1.02;;;22.20;69.60;;;21.83;32.67;102486.19;4945693;28;20105;-79
2021/05/30 07:54:17;;;;;;;2.50;1.27;;;22.00;65.90;;;20.56;34.45;102492.44;4933050;28;20029;-79
2021/05/30 07:56:47;;;;;;;3.25;1.45;;;21.50;69.20;;;20.80;34.93;102492.78;4929291;28;20097;-79
2021/05/30 07:59:13;;;;;;;4.75;1.45;;;21.40;69.60;;;19.97;37.39;102488.84;4936077;28;20087;-79
2021/05/30 08:01:38;;;;;;;2.92;1.10;;;21.30;68.00;;;20.21;33.88;102484.72;4934224;28;20038;-79
2021/05/30 08:04:04;;;;;;;5.03;1.48;;;21.20;70.50;;;20.06;35.40;102493.66;4921461;28;20054;-79
2021/05/30 08:06:32;;;;;;;2.90;1.38;;;21.00;68.80;;;19.73;34.32;102491.97;4942697;28;20076;-79
2021/05/30 08:08:58;;;;;;;4.90;1.10;;;20.60;70.50;;;19.54;34.92;102492.13;4940924;28;20019;-80
2021/05/30 08:11:29;;;;;;;3.53;1.40;;;20.70;71.60;;;18.79;35.60;102493.59;4957179;28;20045;-80
2021/05/30 08:13:56;;;;;;;4.03;1.15;;;20.80;70.10;;;18.79;38.41;102493.59;4959516;28;20498;-79
2021/05/30 08:16:22;;;;;;;5.85;2.20;;;20.70;69.50;;;18.76;37.55;102497.25;4932489;28;20072;-79
2021/05/30 08:18:49;;;;;;;3.38;1.20;;;20.40;72.00;;;19.02;37.75;102501.22;4929368;28;20149;-79
2021/05/30 08:21:18;;;;;;;4.03;1.08;;;20.70;72.90;;;19.14;37.08;102497.03;4932090;28;20113;-79
2021/05/30 08:23:46;;;;;;;5.35;1.30;;;20.50;71.00;;;18.63;37.40;102489.03;4924293;28;20024;-79
2021/05/30 08:26:13;;;;;;;5.85;1.60;;;20.50;73.00;;;19.31;36.57;102492.56;4947269;28;20030;-79
2021/05/30 08:28:38;;;;;;;3.67;1.27;;;20.60;71.50;;;18.98;38.57;102497.00;4937663;28;20017;-80
2021/05/30 08:31:05;;;;;;;3.35;1.50;;;20.50;74.50;;;19.03;40.94;102500.28;4955365;28;20014;-78
2021/05/30 08:33:34;;;;;;;4.45;1.00;;;20.60;71.30;;;19.33;35.60;102506.69;4939948;28;20026;-79
2021/05/30 08:36:00;;;;;;;1.95;0.98;;;;;;;18.97;33.64;102497.94;4935668;28;20024;-80
2021/05/30 08:38:26;;;;;;;3.13;1.10;;;20.40;70.10;;;18.62;35.11;102503.34;4951052;28;20421;-79
2021/05/30 08:40:53;;;;;;;3.47;1.02;;;20.30;70.50;;;18.28;37.35;102493.53;4954691;28;20050;-79
2021/05/30 08:43:20;;;;;;;4.80;1.50;;;19.50;71.80;;;17.67;39.62;102499.22;4946756;28;20037;-79
2021/05/30 08:45:46;;;;;;;4.47;1.40;;;19.70;74.10;;;18.17;40.73;102495.91;4950821;28;20034;-79
2021/05/30 08:48:17;;;;;;;3.33;1.13;;;20.10;71.30;;;18.79;37.18;102504.25;4950948;28;20088;-79
2021/05/30 08:50:43;;;;;;;3.58;1.42;;;19.60;71.40;;;18.04;37.74;102501.84;4924829;28;20054;-79
2021/05/30 08:53:09;;;;;;;5.32;1.40;;;20.00;71.00;;;18.67;37.48;102492.41;4953144;28;20383;-79
2021/05/30 08:55:38;;;;;;;6.00;1.27;;;19.90;69.80;;;18.01;37.16;102501.13;4948837;28;20482;-79
2021/05/30 08:58:09;;;;;;;2.70;1.10;;;19.80;69.70;;;18.30;36.46;102498.81;4912765;28;20651;-79
2021/05/30 09:01:08;;;;;;;5.05;1.27;;;20.20;70.20;;;18.49;34.62;102493.38;4939057;28;20030;-79
2021/05/30 09:04:07;;;;;;;3.40;1.08;;;19.90;75.30;;;19.08;39.68;102497.38;4877806;28;20428;-79
2021/05/30 09:07:01;;;;;;;2.33;1.10;;;19.80;72.20;;;18.57;38.09;102494.69;4891826;28;20034;-79
2021/05/30 09:10:09;;;;;;;3.35;1.13;;;19.20;71.30;;;17.73;38.23;102499.81;4877926;28;20429;-78
2021/05/30 09:13:05;;;;;;;3.00;1.10;;;19.00;71.40;;;17.64;38.10;102494.91;4873767;28;20198;-79
2021/05/30 09:16:20;;;;;;;5.43;1.30;;;18.60;77.50;;;17.51;39.57;102496.44;4870136;28;20082;-78
2021/05/30 09:18:48;;;;;;;3.33;1.45;;;18.50;73.50;;;17.52;39.17;102498.19;4901299;28;20152;-79
2021/05/30 09:21:46;;;;;;;2.80;1.20;;;18.80;72.90;;;17.59;40.02;102499.59;4858348;28;20114;-78
2021/05/30 09:25:08;;;;;;;5.15;1.48;;;18.50;78.20;;;17.57;37.90;102496.16;4909183;28;20069;-78
2021/05/30 09:28:29;;;;;;;3.83;1.50;;;18.60;77.40;;;18.00;39.06;102496.75;4871329;28;20119;-78
2021/05/30 09:31:15;;;;;;;2.47;1.35;;;19.10;72.70;;;17.22;38.92;102501.34;4895490;28;20640;-78
2021/05/30 09:34:35;;;;;;;1.75;1.30;;;18.60;76.60;;;17.98;38.85;102494.16;4864526;28;20066;-79
2021/05/30 09:37:58;;;;;;;4.97;1.63;;;18.70;77.30;;;17.80;40.75;102498.56;4872895;28;20446;-80
2021/05/30 09:41:16;;;;;;;3.00;1.20;;;18.80;75.10;;;17.94;38.73;102489.03;4899268;28;20048;-78
2021/05/30 09:48:56;;;;;;;5.72;1.58;;;18.20;77.00;;;16.93;37.42;102495.56;4917184;28;20128;-79
2021/05/30 09:51:53;;;;;;;2.43;1.00;;;18.40;74.90;;;16.94;39.82;102486.63;4907532;28;20124;-78
2021/05/30 09:55:06;;;;;;;5.75;1.40;;;18.30;73.70;;;17.13;39.38;102483.16;4888511;28;20092;-78
2021/05/30 09:58:26;;;;;;;5.85;1.40;;;18.60;73.80;;;17.82;36.82;102487.88;4903590;28;20084;-78
2021/05/30 10:01:09;;;;;;;2.80;1.35;;;18.50;77.30;;;17.92;38.98;102491.78;4858907;28;20099;-78
2021/05/30 10:04:27;;;;;;;3.63;1.10;;;18.60;75.10;;;17.79;38.12;102488.81;4855940;28;20147;-78
2021/05/30 10:07:17;;;;;;;3.67;1.10;;;18.90;74.30;;;18.18;36.94;102492.28;4880465;28;20061;-79
2021/05/30 10:10:14;;;;;;;4.47;1.38;;;19.00;73.10;;;18.03;38.80;102493.91;4852571;28;20132;-78
2021/05/30 10:13:15;;;;;;;4.05;1.10;;;18.90;75.40;;;17.75;41.26;102499.72;4854107;28;20586;-78
2021/05/30 10:15:45;;;;;;;2.38;1.30;;;18.80;73.50;;;17.86;40.92;102502.78;4887238;28;20080;-78
2021/05/30 10:18:41;;;;;;;2.55;1.08;;;18.70;76.50;;;17.63;36.73;102495.84;4866497;28;20094;-78
2021/05/30 10:21:14;;;;;;;1.98;1.10;;;18.80;70.20;;;17.49;35.54;102493.84;4869879;28;20065;-79
2021/05/30 10:24:06;;;;;;;5.50;1.20;;;18.60;74.20;;;17.73;36.22;102498.91;4862445;28;20068;-77
2021/05/30 10:27:20;;;;;;;4.85;1.50;;;18.60;72.50;;;17.90;36.65;102490.13;4853921;28;20067;-78
2021/05/30 10:30:10;;;;;;;10.32;1.58;;;18.50;73.50;;;17.87;39.37;102503.63;4878012;28;20031;-78
2021/05/30 10:33:07;;;;;;;6.10;1.20;;;18.90;74.00;;;18.41;39.46;102493.78;4898094;28;20073;-78
2021/05/30 10:35:32;;;;;;;3.03;1.10;;;19.40;71.40;;;18.32;36.11;102494.25;4899857;28;20057;-78
2021/05/30 10:37:59;;;;;;;2.75;1.50;;;19.10;69.30;;;18.07;35.65;102500.81;4919483;28;20058;-78